Weer

Current Metar

EHAM: EHAM 031725Z 33009KT 9999 FEW023 19/13 Q1013 NOSIG
EHRD: EHRD 031725Z AUTO 33007KT 290V020 9999 FEW024 18/13 Q1014 NOSIG
EHGG: EHGG 031725Z AUTO VRB02KT 9999 NSC 19/12 Q1013 NOSIG
EHEH: EHEH 031725Z AUTO 35008KT 270V040 9999 OVC110 17/11 Q1013 BLU NOSIG
EHBK: EHBK 031725Z AUTO 34013KT 310V010 9999 NSC 19/10 Q1012 NOSIG

Search METAR


Wind Charts

+ 0600h
FL100 FL180 FL240 FL300 FL340

+ 1200h
FL100 FL180 FL240 FL300 FL340

+ 1800h
FL100 FL180 FL240 FL300 FL340

+ 2400h
FL100 FL180 FL240 FL300 FL340

Europe & Africa charts only, updated daily.

 

Weather Services

MET Office